Time;durP1;ratioP1;P1;durP2;ratioP2;P2;SDS_P1;SDS_P2;PMS_P1;PMS_P2;Temp;Humidity;BMP_temperature;BMP_pressure;BME280_temperature;BME280_humidity;BME280_pressure;Samples;Min_cycle;Max_cycle;Signal;HPM_P1;HPM_P2
2022/09/12 00:00:11;;;;;;;2.10;2.00;;;23.20;64.00;;;;;;4991969;28;43673;-77
2022/09/12 00:02:39;;;;;;;1.90;1.90;;;23.20;64.10;;;;;;4993900;28;43495;-76
2022/09/12 00:05:07;;;;;;;2.00;2.00;;;23.20;64.20;;;;;;4997636;28;43428;-75
2022/09/12 00:07:35;;;;;;;2.07;2.07;;;23.20;64.50;;;;;;4989066;28;43409;-76
2022/09/12 00:10:04;;;;;;;2.40;2.40;;;23.20;64.30;;;;;;4994933;28;43604;-75
2022/09/12 00:12:32;;;;;;;2.07;2.07;;;23.30;64.00;;;;;;4993571;28;44376;-76
2022/09/12 00:15:00;;;;;;;2.17;2.17;;;23.50;63.60;;;;;;4988487;28;43677;-75
2022/09/12 00:17:29;;;;;;;2.10;2.10;;;23.60;63.20;;;;;;4988789;28;43459;-74
2022/09/12 00:19:57;;;;;;;2.20;2.20;;;23.60;63.10;;;;;;5000694;28;43679;-77
2022/09/12 00:22:25;;;;;;;2.20;2.20;;;23.50;63.10;;;;;;4993935;28;43531;-74
2022/09/12 00:24:53;;;;;;;2.13;2.13;;;23.40;63.30;;;;;;4994840;28;43607;-75
2022/09/12 00:27:21;;;;;;;2.03;2.03;;;23.40;63.70;;;;;;4974199;28;44699;-76
2022/09/12 00:29:49;;;;;;;2.33;2.33;;;23.40;63.70;;;;;;4993076;28;43592;-76
2022/09/12 00:32:17;;;;;;;2.00;2.00;;;23.30;63.70;;;;;;4983551;28;44699;-75
2022/09/12 00:34:46;;;;;;;2.03;2.03;;;23.30;63.90;;;;;;4995142;28;44006;-77
2022/09/12 00:37:14;;;;;;;2.10;2.10;;;23.20;64.00;;;;;;4997850;28;43449;-76
2022/09/12 00:39:42;;;;;;;2.40;2.30;;;23.20;64.10;;;;;;4991601;28;43765;-77
2022/09/12 00:42:10;;;;;;;2.10;2.10;;;23.30;64.00;;;;;;4993206;28;43648;-77
2022/09/12 00:44:49;;;;;;;2.10;2.10;;;23.40;63.80;;;;;;4973492;28;44032;-77
2022/09/12 00:47:23;;;;;;;2.30;2.20;;;23.40;63.60;;;;;;5001473;28;43904;-77
2022/09/12 00:49:55;;;;;;;2.20;2.20;;;23.30;63.70;;;;;;4987901;28;44118;-74
2022/09/12 00:52:26;;;;;;;2.30;2.20;;;23.30;63.80;;;;;;4993403;28;43925;-74
2022/09/12 00:54:55;;;;;;;2.00;2.00;;;23.30;63.70;;;;;;4994197;28;43537;-76
2022/09/12 00:57:24;;;;;;;1.90;1.90;;;23.30;63.70;;;;;;4988825;28;43544;-74
2022/09/12 00:59:55;;;;;;;2.00;2.00;;;23.30;63.90;;;;;;4993482;28;43783;-76
2022/09/12 01:02:23;;;;;;;2.10;2.10;;;23.20;64.00;;;;;;4974874;28;45286;-76
2022/09/12 01:04:52;;;;;;;2.30;2.30;;;23.20;64.10;;;;;;4991814;28;43483;-75
2022/09/12 01:07:20;;;;;;;2.10;2.10;;;23.20;63.90;;;;;;4974553;28;43450;-77
2022/09/12 01:09:48;;;;;;;2.10;2.10;;;23.20;64.00;;;;;;4971786;28;45581;-76
2022/09/12 01:12:16;;;;;;;2.03;2.03;;;23.20;64.20;;;;;;4993894;28;43490;-77
2022/09/12 01:14:44;;;;;;;2.23;2.23;;;23.10;64.30;;;;;;4991800;28;43549;-77
2022/09/12 01:17:13;;;;;;;2.40;2.20;;;23.20;64.20;;;;;;4994061;28;44102;-75
2022/09/12 01:19:57;;;;;;;2.20;2.20;;;23.30;63.90;;;;;;4998207;28;43584;-76
2022/09/12 01:22:36;;;;;;;2.27;2.27;;;23.50;63.40;;;;;;4997327;28;43388;-74
2022/09/12 01:25:08;;;;;;;2.07;2.07;;;23.50;63.00;;;;;;5003616;28;44065;-75
2022/09/12 01:27:49;;;;;;;2.30;2.30;;;23.60;63.00;;;;;;4988823;28;43908;-77
2022/09/12 01:30:35;;;;;;;2.30;2.20;;;23.50;63.10;;;;;;4991086;28;43910;-77
2022/09/12 01:33:24;;;;;;;2.23;2.23;;;23.40;63.30;;;;;;4998359;28;43918;-75
2022/09/12 01:35:57;;;;;;;2.07;1.97;;;23.30;63.60;;;;;;4991167;28;43521;-76
2022/09/12 01:38:27;;;;;;;2.20;2.20;;;23.30;63.60;;;;;;4992539;28;43381;-74
2022/09/12 01:40:59;;;;;;;1.93;1.93;;;23.30;63.70;;;;;;4996178;28;43634;-75
2022/09/12 01:43:30;;;;;;;2.20;2.20;;;23.20;63.80;;;;;;4998107;28;43554;-76
2022/09/12 01:46:01;;;;;;;1.90;1.90;;;23.20;64.00;;;;;;4993143;28;43470;-76
2022/09/12 01:48:30;;;;;;;2.00;2.00;;;23.20;63.90;;;;;;4994464;28;43707;-75
2022/09/12 01:51:02;;;;;;;2.07;2.07;;;23.30;63.70;;;;;;4996198;28;43951;-77
2022/09/12 01:53:31;;;;;;;2.27;2.27;;;23.40;63.50;;;;;;4969342;28;44698;-75
2022/09/12 01:56:01;;;;;;;2.10;2.10;;;23.30;63.30;;;;;;4975337;28;43778;-77
2022/09/12 01:58:30;;;;;;;2.00;2.00;;;23.30;63.60;;;;;;4989723;28;43473;-76
2022/09/12 02:01:02;;;;;;;2.13;2.13;;;23.30;63.60;;;;;;4992850;28;43605;-74
2022/09/12 02:03:32;;;;;;;2.10;2.10;;;23.30;63.50;;;;;;4992125;28;43402;-76
2022/09/12 02:06:01;;;;;;;2.13;2.13;;;23.30;63.60;;;;;;4993867;28;43435;-75
2022/09/12 02:08:31;;;;;;;2.07;2.07;;;23.20;63.60;;;;;;4974414;28;44133;-75
2022/09/12 02:11:01;;;;;;;2.07;2.07;;;23.20;63.90;;;;;;4990539;28;43681;-75
2022/09/12 02:13:32;;;;;;;1.90;1.90;;;23.20;63.90;;;;;;4989033;28;43457;-76
2022/09/12 02:16:04;;;;;;;2.17;2.17;;;23.30;63.70;;;;;;4998187;28;43792;-76
2022/09/12 02:18:32;;;;;;;2.03;2.03;;;23.40;63.30;;;;;;4996312;28;44063;-76
2022/09/12 02:21:00;;;;;;;2.17;2.17;;;23.40;63.20;;;;;;4992965;28;43878;-76
2022/09/12 02:23:28;;;;;;;2.20;2.20;;;23.40;63.30;;;;;;4996525;28;43383;-74
2022/09/12 02:25:57;;;;;;;2.00;2.00;;;23.30;63.50;;;;;;4989812;28;43469;-75
2022/09/12 02:28:26;;;;;;;2.10;2.10;;;23.30;63.40;;;;;;4997246;28;43444;-76
2022/09/12 02:30:59;;;;;;;2.00;2.00;;;23.30;63.40;;;;;;4971953;28;44049;-75
2022/09/12 02:33:30;;;;;;;2.13;2.13;;;23.30;63.60;;;;;;4993284;28;43349;-76
2022/09/12 02:36:01;;;;;;;2.00;2.00;;;23.20;63.80;;;;;;4976291;28;43416;-75
2022/09/12 02:38:31;;;;;;;2.20;2.20;;;23.20;63.80;;;;;;4981635;28;43406;-76
2022/09/12 02:40:59;;;;;;;2.13;2.13;;;23.20;63.80;;;;;;4972569;28;45778;-78
2022/09/12 02:43:27;;;;;;;2.20;2.20;;;23.20;64.10;;;;;;4974724;28;45217;-74
2022/09/12 02:45:55;;;;;;;2.00;2.00;;;23.10;63.90;;;;;;4988452;28;43436;-76
2022/09/12 02:48:24;;;;;;;2.03;2.03;;;23.10;64.10;;;;;;4995407;28;43505;-74
2022/09/12 02:50:53;;;;;;;1.97;1.97;;;23.20;63.90;;;;;;4994653;28;43608;-76
2022/09/12 02:53:21;;;;;;;1.90;1.90;;;23.30;63.50;;;;;;4989420;28;44116;-76
2022/09/12 02:55:49;;;;;;;2.03;2.03;;;23.40;63.00;;;;;;4970598;28;43439;-76
2022/09/12 02:58:18;;;;;;;1.90;1.90;;;23.50;62.70;;;;;;4997118;28;44021;-76
2022/09/12 03:00:51;;;;;;;2.20;2.20;;;23.50;62.60;;;;;;5000225;28;43801;-77
2022/09/12 03:03:26;;;;;;;2.10;2.10;;;23.50;62.90;;;;;;4992984;28;43422;-73
2022/09/12 03:05:57;;;;;;;2.00;2.00;;;23.40;63.20;;;;;;4995159;28;44024;-77
2022/09/12 03:08:39;;;;;;;2.00;2.00;;;23.30;63.30;;;;;;4989673;28;43435;-75
2022/09/12 03:11:25;;;;;;;1.70;1.70;;;23.30;63.40;;;;;;4972238;28;45595;-75
2022/09/12 03:13:57;;;;;;;1.90;1.90;;;23.20;63.40;;;;;;4988217;28;43414;-77
2022/09/12 03:16:28;;;;;;;1.80;1.80;;;23.20;63.60;;;;;;4998180;28;43369;-76
2022/09/12 03:18:58;;;;;;;2.00;2.00;;;23.10;63.80;;;;;;4993803;28;44014;-77
2022/09/12 03:21:29;;;;;;;2.00;2.00;;;23.10;63.70;;;;;;4991842;28;43624;-74
2022/09/12 03:24:04;;;;;;;1.70;1.70;;;23.10;63.70;;;;;;4991504;28;44458;-76
2022/09/12 03:26:35;;;;;;;2.00;2.00;;;23.10;63.80;;;;;;4979117;28;43479;-75
2022/09/12 03:29:04;;;;;;;1.97;1.97;;;23.10;63.90;;;;;;5000706;28;43455;-75
2022/09/12 03:31:31;;;;;;;1.80;1.80;;;23.10;64.10;;;;;;5000568;28;43584;-77
2022/09/12 03:33:59;;;;;;;2.00;2.00;;;23.20;63.90;;;;;;4991577;28;43357;-77
2022/09/12 03:36:29;;;;;;;2.43;2.33;;;23.30;63.50;;;;;;4983015;28;44111;-75
2022/09/12 03:38:57;;;;;;;4.47;2.90;;;23.40;63.00;;;;;;4981882;28;43429;-76
2022/09/12 03:41:25;;;;;;;10.27;3.73;;;23.50;63.50;;;;;;4987955;28;43965;-75
2022/09/12 03:43:55;;;;;;;8.37;4.27;;;23.50;62.70;;;;;;4996097;28;43870;-76
2022/09/12 03:46:23;;;;;;;13.83;4.83;;;23.40;62.90;;;;;;4973015;28;44829;-76
2022/09/12 03:48:51;;;;;;;16.47;5.87;;;23.30;63.10;;;;;;4999819;28;43598;-75
2022/09/12 03:51:19;;;;;;;15.87;5.60;;;23.30;63.40;;;;;;4996763;28;44808;-77
2022/09/12 03:53:49;;;;;;;16.17;6.33;;;23.20;63.30;;;;;;4989187;28;43352;-75
2022/09/12 03:56:17;;;;;;;8.30;4.67;;;23.20;63.50;;;;;;4986382;28;43474;-75
2022/09/12 03:58:45;;;;;;;19.10;6.43;;;23.20;63.60;;;;;;4992485;28;43526;-77
2022/09/12 04:01:14;;;;;;;21.73;7.03;;;23.10;63.70;;;;;;4987089;28;43815;-76
2022/09/12 04:03:43;;;;;;;20.23;6.80;;;23.10;63.70;;;;;;4991980;28;43476;-75
2022/09/12 04:06:11;;;;;;;20.37;7.77;;;23.20;63.50;;;;;;4996199;28;43463;-76
2022/09/12 04:08:39;;;;;;;18.80;7.50;;;23.40;63.10;;;;;;4973560;28;43366;-73
2022/09/12 04:11:11;;;;;;;19.27;7.60;;;23.50;62.80;;;;;;4972679;28;45968;-76
2022/09/12 04:13:39;;;;;;;24.60;7.43;;;23.50;62.70;;;;;;4992306;28;43435;-75
2022/09/12 04:16:07;;;;;;;17.37;6.67;;;23.40;62.70;;;;;;4996363;28;45090;-75
2022/09/12 04:18:35;;;;;;;18.80;7.57;;;23.40;63.00;;;;;;4995805;28;43484;-77
2022/09/12 04:21:04;;;;;;;17.70;7.60;;;23.30;63.20;;;;;;4999210;28;43624;-76
2022/09/12 04:23:32;;;;;;;20.07;7.50;;;23.20;63.00;;;;;;4990148;28;43490;-76
2022/09/12 04:26:00;;;;;;;21.23;7.97;;;23.20;63.20;;;;;;4994006;28;44177;-77
2022/09/12 04:28:31;;;;;;;16.57;7.43;;;23.20;63.50;;;;;;4987416;28;43950;-76
2022/09/12 04:31:01;;;;;;;18.50;7.97;;;23.10;63.50;;;;;;4993269;28;43624;-76
2022/09/12 04:33:29;;;;;;;20.17;8.20;;;23.10;63.70;;;;;;4991150;28;44074;-75
2022/09/12 04:36:02;;;;;;;18.90;7.50;;;23.10;63.60;;;;;;4991347;28;43480;-76
2022/09/12 04:38:30;;;;;;;17.50;7.80;;;23.10;63.60;;;;;;4993467;28;43436;-76
2022/09/12 04:40:58;;;;;;;16.83;7.17;;;23.10;63.80;;;;;;4994939;28;44051;-76
2022/09/12 04:43:26;;;;;;;20.23;7.73;;;23.10;63.90;;;;;;4989086;28;44023;-73
2022/09/12 04:45:55;;;;;;;19.60;7.80;;;23.00;63.80;;;;;;4973685;28;43362;-75
2022/09/12 04:48:23;;;;;;;17.30;7.17;;;23.10;63.80;;;;;;4969835;28;43487;-77
2022/09/12 04:50:51;;;;;;;16.17;7.27;;;23.10;63.70;;;;;;4989401;28;43956;-76
2022/09/12 04:53:19;;;;;;;15.53;7.40;;;23.00;63.70;;;;;;4993503;28;43483;-77
2022/09/12 04:55:46;;;;;;;15.97;7.23;;;23.00;63.70;;;;;;4982138;28;43458;-77
2022/09/12 04:58:14;;;;;;;16.33;7.37;;;23.00;63.70;;;;;;4971724;28;43531;-74
2022/09/12 05:00:42;;;;;;;14.03;7.50;;;23.10;63.50;;;;;;4989011;28;43675;-76
2022/09/12 05:03:11;;;;;;;15.40;7.10;;;23.30;63.10;;;;;;4978748;28;44738;-76
2022/09/12 05:05:39;;;;;;;15.97;7.43;;;23.40;62.70;;;;;;4973240;28;43615;-77
2022/09/12 05:08:07;;;;;;;14.83;7.47;;;23.50;62.30;;;;;;4981609;28;43913;-77
2022/09/12 05:10:35;;;;;;;15.37;6.60;;;23.50;62.10;;;;;;4986824;28;43604;-77
2022/09/12 05:13:03;;;;;;;18.23;7.23;;;23.50;62.30;;;;;;4994126;28;43555;-73
2022/09/12 05:15:31;;;;;;;15.70;7.60;;;23.40;62.60;;;;;;4998865;28;43452;-77
2022/09/12 05:17:59;;;;;;;12.40;6.93;;;23.30;62.70;;;;;;4991701;28;43417;-75
2022/09/12 05:20:28;;;;;;;14.57;7.20;;;23.30;62.80;;;;;;4995750;28;43962;-76
2022/09/12 05:22:56;;;;;;;11.30;6.20;;;23.20;62.90;;;;;;4992434;28;43443;-76
2022/09/12 05:25:24;;;;;;;14.50;6.63;;;23.20;63.20;;;;;;4988200;28;43431;-74
2022/09/12 05:27:52;;;;;;;10.43;6.70;;;23.10;63.30;;;;;;4991884;28;43417;-75
2022/09/12 05:30:20;;;;;;;10.23;6.40;;;23.20;63.30;;;;;;5002258;28;43569;-77
2022/09/12 05:32:48;;;;;;;10.50;6.03;;;23.10;63.30;;;;;;4991609;28;43457;-75
2022/09/12 05:35:17;;;;;;;14.57;6.70;;;23.10;63.40;;;;;;4977657;28;43480;-77
2022/09/12 05:37:46;;;;;;;14.33;6.67;;;23.10;63.50;;;;;;4994820;28;43486;-75
2022/09/12 05:40:16;;;;;;;10.83;6.23;;;23.00;63.50;;;;;;4989847;28;43733;-75
2022/09/12 05:42:44;;;;;;;11.97;6.40;;;23.10;63.40;;;;;;4996911;28;43436;-77
2022/09/12 05:45:13;;;;;;;7.93;5.57;;;23.20;63.10;;;;;;4993985;28;43880;-76
2022/09/12 05:47:42;;;;;;;11.23;6.17;;;23.40;62.80;;;;;;4993452;28;43746;-75
2022/09/12 05:50:11;;;;;;;10.90;6.03;;;23.40;62.20;;;;;;4979463;28;45352;-76
2022/09/12 05:52:39;;;;;;;11.47;6.37;;;23.50;62.20;;;;;;4974421;28;44429;-76
2022/09/12 05:55:10;;;;;;;9.50;5.83;;;23.40;62.30;;;;;;4977233;28;43341;-75
2022/09/12 05:57:38;;;;;;;8.47;6.27;;;23.30;62.60;;;;;;4991633;28;43587;-76
2022/09/12 06:00:08;;;;;;;10.10;6.43;;;23.20;62.80;;;;;;4975546;28;45732;-76
2022/09/12 06:02:38;;;;;;;11.10;6.27;;;23.20;62.90;;;;;;4994791;28;44009;-76
2022/09/12 06:05:07;;;;;;;10.20;6.27;;;23.20;63.00;;;;;;4996954;28;43353;-76
2022/09/12 06:07:35;;;;;;;8.97;6.00;;;23.10;63.10;;;;;;5000121;28;43393;-76
2022/09/12 06:10:04;;;;;;;8.57;6.07;;;23.10;63.20;;;;;;4994608;28;44034;-75
2022/09/12 06:12:33;;;;;;;9.50;5.80;;;23.10;63.30;;;;;;4996361;28;43371;-77
2022/09/12 06:15:01;;;;;;;9.17;5.50;;;23.10;64.00;;;;;;4994836;28;43997;-78
2022/09/12 06:17:29;;;;;;;8.93;5.90;;;23.10;63.40;;;;;;5000317;28;43406;-74
2022/09/12 06:19:56;;;;;;;10.27;6.07;;;23.00;63.40;;;;;;4977467;28;45341;-76
2022/09/12 06:22:24;;;;;;;8.77;5.20;;;23.00;63.50;;;;;;4993280;28;43503;-75
2022/09/12 06:24:52;;;;;;;8.93;5.53;;;23.10;63.50;;;;;;4993916;28;43405;-76
2022/09/12 06:27:24;;;;;;;8.07;6.03;;;23.20;63.20;;;;;;4989388;28;43987;-76
2022/09/12 06:29:54;;;;;;;8.70;5.20;;;23.30;62.80;;;;;;4989236;28;44803;-76
2022/09/12 06:32:21;;;;;;;10.90;6.13;;;23.40;62.40;;;;;;4996685;28;43390;-76
2022/09/12 06:34:49;;;;;;;9.03;5.57;;;23.40;62.20;;;;;;4973046;28;43446;-76
2022/09/12 06:37:17;;;;;;;7.90;5.30;;;23.40;62.30;;;;;;4994508;28;43463;-77
2022/09/12 06:39:45;;;;;;;8.87;5.47;;;23.30;62.60;;;;;;5001268;28;43986;-76
2022/09/12 06:42:14;;;;;;;8.07;5.40;;;23.20;62.70;;;;;;4988785;28;43456;-75
2022/09/12 06:44:50;;;;;;;7.57;4.90;;;23.20;62.90;;;;;;4979594;28;43497;-77
2022/09/12 06:47:20;;;;;;;5.20;4.20;;;23.20;62.90;;;;;;4994179;28;43420;-77
2022/09/12 06:49:48;;;;;;;8.23;5.20;;;23.10;63.70;;;;;;4994954;28;43885;-74
2022/09/12 06:52:16;;;;;;;7.03;4.83;;;23.10;63.20;;;;;;4982460;28;44924;-75
2022/09/12 06:54:45;;;;;;;6.17;4.87;;;23.10;63.40;;;;;;4993328;28;43402;-77
2022/09/12 06:57:13;;;;;;;5.40;4.90;;;23.10;63.40;;;;;;4979468;28;43546;-75
2022/09/12 06:59:41;;;;;;;4.90;4.40;;;23.10;63.30;;;;;;4994265;28;43979;-76
2022/09/12 07:02:09;;;;;;;5.80;4.73;;;23.00;64.10;;;;;;4993031;28;43471;-75
2022/09/12 07:04:38;;;;;;;4.73;4.20;;;23.00;63.40;;;;;;4977155;28;43437;-74
2022/09/12 07:07:06;;;;;;;6.67;4.67;;;23.00;63.60;;;;;;4994384;28;43403;-76
2022/09/12 07:09:34;;;;;;;6.80;4.83;;;23.10;63.40;;;;;;4994816;28;43565;-75
2022/09/12 07:12:03;;;;;;;5.80;4.60;;;23.20;63.20;;;;;;4991300;28;44022;-76
2022/09/12 07:14:31;;;;;;;4.90;4.40;;;23.30;62.70;;;;;;4992118;28;43441;-75
2022/09/12 07:16:59;;;;;;;6.20;4.93;;;23.40;63.20;;;;;;4989226;28;43449;-75
2022/09/12 07:19:26;;;;;;;5.73;4.60;;;23.40;62.40;;;;;;4988019;28;43871;-75
2022/09/12 07:21:56;;;;;;;5.33;4.83;;;23.30;62.50;;;;;;4938603;28;1078654;-75
2022/09/12 07:24:25;;;;;;;4.70;4.17;;;23.30;62.80;;;;;;4989884;28;43379;-75
2022/09/12 07:26:53;;;;;;;5.00;4.50;;;23.20;63.00;;;;;;4990377;28;43416;-76
2022/09/12 07:29:21;;;;;;;5.03;4.50;;;23.20;63.10;;;;;;4995296;28;43897;-75
2022/09/12 07:32:04;;;;;;;5.47;4.10;;;23.10;63.10;;;;;;5000242;28;44039;-75
2022/09/12 07:34:32;;;;;;;4.77;4.27;;;23.10;63.20;;;;;;4990222;28;43338;-77
2022/09/12 07:37:02;;;;;;;6.53;4.83;;;23.10;63.30;;;;;;4997372;28;43397;-75
2022/09/12 07:39:30;;;;;;;4.70;4.30;;;23.00;63.40;;;;;;4996053;28;43752;-74
2022/09/12 07:41:59;;;;;;;5.80;4.33;;;23.10;63.50;;;;;;5003020;28;43438;-75
2022/09/12 07:44:27;;;;;;;4.87;4.37;;;23.20;63.20;;;;;;5000381;28;43446;-75
2022/09/12 07:46:55;;;;;;;4.77;4.27;;;23.30;62.70;;;;;;4998242;28;43919;-76
2022/09/12 07:49:23;;;;;;;5.37;4.83;;;23.40;62.50;;;;;;4993181;28;43731;-75
2022/09/12 07:51:52;;;;;;;5.77;4.67;;;23.40;62.50;;;;;;4994299;28;43437;-76
2022/09/12 07:54:21;;;;;;;4.63;4.23;;;23.30;62.60;;;;;;4994223;28;43416;-74
2022/09/12 07:56:49;;;;;;;4.90;4.03;;;23.30;62.90;;;;;;4979226;28;43615;-75
2022/09/12 07:59:17;;;;;;;4.47;4.13;;;23.20;63.20;;;;;;4995957;28;43553;-76
2022/09/12 08:02:05;;;;;;;4.73;3.70;;;23.20;63.20;;;;;;4980816;28;44516;-75
2022/09/12 08:04:35;;;;;;;5.23;4.23;;;23.10;63.30;;;;;;4979190;28;43447;-74
2022/09/12 08:07:03;;;;;;;4.43;4.13;;;23.10;63.40;;;;;;5000365;28;43369;-73
2022/09/12 08:09:32;;;;;;;4.80;4.30;;;23.00;63.50;;;;;;4992595;28;44014;-76
2022/09/12 08:12:00;;;;;;;5.23;4.20;;;23.00;63.50;;;;;;4976527;28;45272;-77
2022/09/12 08:14:28;;;;;;;4.50;4.10;;;23.00;63.50;;;;;;4991919;28;43347;-76
2022/09/12 08:16:56;;;;;;;5.70;4.37;;;23.00;63.60;;;;;;4993380;28;43980;-76
2022/09/12 08:19:24;;;;;;;4.10;3.80;;;23.00;64.30;;;;;;4987399;28;43928;-74
2022/09/12 08:21:52;;;;;;;4.00;3.80;;;23.00;63.90;;;;;;4993940;28;43368;-75
2022/09/12 08:24:20;;;;;;;4.40;4.03;;;23.00;63.80;;;;;;4993260;28;43455;-75
2022/09/12 08:26:49;;;;;;;5.17;4.10;;;23.10;63.60;;;;;;4993971;28;43466;-76
2022/09/12 08:29:17;;;;;;;4.17;3.83;;;23.20;63.20;;;;;;4969991;28;46009;-76
2022/09/12 08:31:45;;;;;;;3.80;3.60;;;23.30;62.80;;;;;;4970823;28;44481;-75
2022/09/12 08:34:15;;;;;;;4.10;3.80;;;23.40;62.70;;;;;;4987767;28;43987;-75
2022/09/12 08:36:43;;;;;;;3.60;3.40;;;23.40;62.60;;;;;;5001069;28;43402;-77
2022/09/12 08:39:12;;;;;;;3.93;3.73;;;23.30;62.80;;;;;;4991898;28;43625;-76
2022/09/12 08:41:40;;;;;;;9.93;4.47;;;23.20;62.90;;;;;;4972178;28;44264;-74
2022/09/12 08:44:25;;;;;;;4.90;3.90;;;23.20;63.30;;;;;;4993840;28;43435;-76
2022/09/12 08:47:16;;;;;;;3.90;3.70;;;23.10;63.20;;;;;;4993014;28;43502;-76
2022/09/12 08:49:48;;;;;;;3.93;3.63;;;23.10;63.40;;;;;;4971822;28;45664;-75
2022/09/12 08:52:29;;;;;;;4.00;3.70;;;23.10;63.50;;;;;;4998103;28;43414;-75
2022/09/12 08:54:57;;;;;;;5.30;3.70;;;23.10;63.80;;;;;;4997067;28;43923;-76
2022/09/12 08:57:26;;;;;;;3.90;3.50;;;23.00;63.60;;;;;;4989886;28;43382;-76
2022/09/12 08:59:55;;;;;;;3.40;3.20;;;23.00;63.70;;;;;;4991669;28;43674;-76
2022/09/12 09:02:44;;;;;;;3.70;3.50;;;23.00;64.40;;;;;;4995224;28;43410;-77
2022/09/12 09:05:19;;;;;;;3.97;3.70;;;23.00;63.90;;;;;;4969347;28;43458;-77
2022/09/12 09:08:09;;;;;;;3.40;3.20;;;23.00;64.00;;;;;;4982243;28;43469;-75
2022/09/12 09:10:41;;;;;;;3.33;3.13;;;23.00;63.90;;;;;;4991522;28;43855;-74
2022/09/12 09:14:46;;;;;;;3.60;3.37;;;23.00;63.90;;;;;;4969522;28;44442;-78
2022/09/12 09:16:06;;;;;;;3.63;3.33;;;23.00;64.00;;;;;;4989197;28;43481;-75
2022/09/12 09:18:34;;;;;;;4.10;3.80;;;23.00;64.20;;;;;;4989331;28;43424;-76
2022/09/12 09:21:03;;;;;;;3.40;3.20;;;23.00;64.00;;;;;;4991790;28;43963;-76
2022/09/12 09:23:33;;;;;;;3.43;3.20;;;23.20;63.70;;;;;;4996021;28;43850;-76
2022/09/12 09:26:06;;;;;;;3.50;3.30;;;23.30;63.20;;;;;;4974238;28;43471;-76
2022/09/12 09:28:37;;;;;;;3.77;3.57;;;23.40;62.90;;;;;;4990396;28;43406;-75
2022/09/12 09:31:12;;;;;;;3.23;3.10;;;23.40;62.80;;;;;;4981972;28;45303;-76
2022/09/12 09:33:40;;;;;;;3.20;3.00;;;23.30;62.90;;;;;;4986695;28;43409;-76
2022/09/12 09:36:14;;;;;;;3.87;3.57;;;23.20;63.00;;;;;;4969259;28;43525;-75
2022/09/12 09:38:46;;;;;;;3.40;3.10;;;23.20;63.40;;;;;;4975890;28;43934;-77
2022/09/12 09:41:42;;;;;;;3.50;3.30;;;23.10;63.40;;;;;;4991443;28;43930;-75
2022/09/12 09:44:10;;;;;;;3.37;3.17;;;23.10;63.60;;;;;;4972004;28;43503;-76
2022/09/12 09:46:39;;;;;;;2.97;2.77;;;23.10;63.60;;;;;;4992423;28;43655;-75
2022/09/12 09:49:08;;;;;;;3.63;3.43;;;23.00;63.90;;;;;;4987551;28;43536;-76
2022/09/12 09:51:36;;;;;;;2.93;2.83;;;23.00;63.80;;;;;;4997077;28;44030;-75
2022/09/12 09:54:11;;;;;;;3.07;2.93;;;23.00;63.80;;;;;;4993468;28;44014;-75
2022/09/12 09:56:41;;;;;;;3.30;3.10;;;23.00;63.80;;;;;;4995938;28;43785;-74
2022/09/12 09:59:10;;;;;;;3.40;3.20;;;23.00;63.90;;;;;;4993531;28;43451;-78
2022/09/12 10:01:46;;;;;;;3.10;2.90;;;23.00;64.20;;;;;;4986505;28;44804;-75
2022/09/12 10:04:18;;;;;;;3.30;3.10;;;23.00;64.10;;;;;;4988589;28;43923;-75
2022/09/12 10:06:46;;;;;;;3.67;3.37;;;23.10;63.80;;;;;;4990872;28;43483;-75
2022/09/12 10:09:19;;;;;;;3.00;2.90;;;23.20;63.40;;;;;;4980788;28;43417;-75
2022/09/12 10:11:48;;;;;;;2.90;2.80;;;23.30;63.10;;;;;;4997435;28;43933;-76
2022/09/12 10:14:33;;;;;;;3.27;3.07;;;23.30;63.00;;;;;;4972922;28;44417;-74
2022/09/12 10:17:04;;;;;;;3.07;2.87;;;23.30;63.20;;;;;;4980525;28;43924;-76
2022/09/12 10:19:36;;;;;;;3.10;2.90;;;23.20;63.20;;;;;;4991669;28;44002;-76
2022/09/12 10:22:04;;;;;;;3.40;3.20;;;23.20;63.60;;;;;;4990386;28;43855;-74
2022/09/12 10:24:34;;;;;;;2.97;2.87;;;23.10;63.60;;;;;;4972610;28;44720;-76
2022/09/12 10:27:07;;;;;;;2.80;2.70;;;23.10;63.70;;;;;;4970224;28;43660;-75
2022/09/12 10:29:39;;;;;;;2.73;2.63;;;23.10;63.80;;;;;;4991018;28;43376;-76
2022/09/12 10:32:08;;;;;;;2.50;2.40;;;23.10;63.90;;;;;;4995238;28;45680;-75
2022/09/12 10:34:37;;;;;;;2.90;2.80;;;23.00;64.00;;;;;;5001825;28;44325;-76
2022/09/12 10:37:06;;;;;;;2.70;2.60;;;23.10;64.30;;;;;;4975391;28;44091;-76
2022/09/12 10:39:34;;;;;;;2.87;2.77;;;23.20;63.60;;;;;;4992104;28;43413;-77
2022/09/12 10:42:03;;;;;;;2.90;2.80;;;23.30;63.30;;;;;;4973872;28;46219;-73
2022/09/12 10:44:31;;;;;;;3.30;3.00;;;23.30;63.00;;;;;;4991698;28;43358;-77
2022/09/12 10:47:00;;;;;;;2.70;2.60;;;23.30;63.10;;;;;;4976083;28;44047;-77
2022/09/12 10:49:36;;;;;;;2.80;2.70;;;23.30;63.30;;;;;;4971608;28;44133;-76
2022/09/12 10:52:17;;;;;;;2.80;2.70;;;23.20;63.50;;;;;;4994536;28;43602;-76
2022/09/12 10:54:45;;;;;;;3.10;3.00;;;23.20;63.70;;;;;;4995290;28;43474;-77
2022/09/12 10:57:30;;;;;;;2.90;2.70;;;23.10;63.60;;;;;;4996693;28;43405;-75
2022/09/12 11:00:04;;;;;;;2.50;2.40;;;23.10;63.80;;;;;;4997943;28;43527;-77
2022/09/12 11:02:37;;;;;;;2.53;2.50;;;23.10;63.90;;;;;;4991284;28;44327;-75
2022/09/12 11:05:09;;;;;;;2.43;2.40;;;23.10;64.10;;;;;;4990764;28;43430;-76
2022/09/12 11:07:43;;;;;;;2.70;2.60;;;23.10;64.10;;;;;;4991223;28;44019;-77
2022/09/12 11:10:21;;;;;;;2.60;2.50;;;23.00;64.00;;;;;;4995777;28;43532;-77
2022/09/12 11:12:51;;;;;;;2.50;2.40;;;23.00;64.10;;;;;;4977060;28;45814;-75
2022/09/12 11:15:33;;;;;;;2.60;2.50;;;23.00;64.00;;;;;;4974718;28;44968;-77
2022/09/12 11:18:06;;;;;;;2.67;2.57;;;23.00;64.20;;;;;;4995749;28;43452;-76
2022/09/12 11:20:49;;;;;;;2.83;2.73;;;23.10;64.10;;;;;;5001524;28;43441;-75
2022/09/12 11:23:40;;;;;;;2.53;2.43;;;23.20;63.90;;;;;;4995520;28;43921;-76
2022/09/12 11:26:13;;;;;;;2.43;2.40;;;23.30;63.40;;;;;;4988750;28;43468;-76
2022/09/12 11:28:46;;;;;;;2.43;2.33;;;23.30;63.20;;;;;;4977244;28;43554;-77
2022/09/12 11:31:51;;;;;;;2.57;2.47;;;23.30;63.30;;;;;;4988767;28;43443;-75
2022/09/12 11:34:22;;;;;;;2.80;2.70;;;23.20;63.50;;;;;;4997435;28;43975;-76
2022/09/12 11:37:03;;;;;;;2.73;2.63;;;23.20;63.70;;;;;;4977604;28;44855;-78
2022/09/12 11:39:38;;;;;;;2.47;2.37;;;23.10;63.70;;;;;;4999931;28;43425;-75
2022/09/12 11:42:09;;;;;;;2.60;2.50;;;23.10;63.80;;;;;;4990642;28;43676;-77
2022/09/12 11:44:39;;;;;;;2.90;2.80;;;23.10;64.00;;;;;;4971883;28;45745;-77
2022/09/12 11:47:08;;;;;;;2.90;2.80;;;23.10;64.10;;;;;;4989337;28;43406;-76
2022/09/12 11:49:37;;;;;;;2.40;2.30;;;23.00;64.00;;;;;;4993030;28;43783;-76
2022/09/12 11:52:11;;;;;;;2.50;2.40;;;23.00;64.10;;;;;;4994746;28;43345;-78
2022/09/12 11:54:41;;;;;;;2.57;2.47;;;23.00;64.20;;;;;;4997541;28;43801;-75
2022/09/12 11:57:14;;;;;;;2.40;2.30;;;23.00;64.20;;;;;;4993412;28;43418;-76
2022/09/12 11:59:45;;;;;;;2.20;2.10;;;23.00;64.30;;;;;;4988635;28;43777;-75
2022/09/12 12:02:15;;;;;;;2.33;2.30;;;23.10;64.30;;;;;;4995126;28;43430;-78
2022/09/12 12:04:56;;;;;;;2.63;2.53;;;23.20;64.10;;;;;;4970746;28;45376;-74
2022/09/12 12:07:25;;;;;;;2.10;2.10;;;23.30;63.70;;;;;;4993314;28;43506;-73
2022/09/12 12:09:54;;;;;;;2.27;2.20;;;23.30;63.30;;;;;;4971351;28;43935;-76
2022/09/12 12:12:24;;;;;;;2.50;2.40;;;23.30;63.40;;;;;;5004770;28;44182;-76
2022/09/12 12:14:53;;;;;;;2.50;2.40;;;23.20;63.50;;;;;;4993767;28;43636;-77
2022/09/12 12:17:21;;;;;;;2.40;2.30;;;23.20;63.80;;;;;;4990332;28;43462;-77
2022/09/12 12:19:57;;;;;;;2.53;2.43;;;23.10;63.80;;;;;;4978227;28;43379;-77
2022/09/12 12:22:33;;;;;;;2.60;2.50;;;23.10;63.90;;;;;;4994710;28;43994;-74
2022/09/12 12:25:24;;;;;;;2.40;2.30;;;23.10;64.10;;;;;;4991359;28;43561;-75
2022/09/12 12:27:58;;;;;;;2.43;2.33;;;23.00;64.10;;;;;;4971274;28;43687;-77
2022/09/12 12:31:02;;;;;;;2.03;2.03;;;23.00;64.20;;;;;;4987729;28;43462;-76
2022/09/12 12:33:56;;;;;;;2.00;2.00;;;23.10;64.10;;;;;;4987913;28;43389;-78
2022/09/12 12:36:33;;;;;;;2.37;2.27;;;23.20;63.80;;;;;;4969314;28;46350;-75
2022/09/12 12:39:19;;;;;;;2.10;2.10;;;23.30;63.40;;;;;;4987872;28;43922;-77
2022/09/12 12:41:47;;;;;;;2.20;2.10;;;23.30;63.30;;;;;;4988023;28;43923;-77
2022/09/12 12:44:47;;;;;;;2.00;1.90;;;23.20;63.50;;;;;;4992524;28;43401;-75
2022/09/12 12:47:17;;;;;;;2.30;2.30;;;23.20;63.70;;;;;;4992753;28;43662;-75
2022/09/12 12:49:51;;;;;;;1.90;1.90;;;23.10;63.90;;;;;;4997861;28;43453;-75
2022/09/12 12:52:19;;;;;;;2.27;2.27;;;23.10;64.00;;;;;;4998740;28;43392;-76
2022/09/12 12:54:57;;;;;;;1.80;1.80;;;23.10;64.10;;;;;;4987447;28;43414;-76
2022/09/12 12:57:52;;;;;;;2.30;2.30;;;23.10;64.40;;;;;;5002353;28;45059;-74
2022/09/12 13:00:29;;;;;;;2.53;2.33;;;23.00;64.40;;;;;;4960253;28;44478;-75
2022/09/12 13:02:59;;;;;;;1.80;1.80;;;23.00;64.40;;;;;;4993853;28;43509;-77
2022/09/12 13:05:28;;;;;;;1.60;1.60;;;23.00;64.60;;;;;;4992820;28;43710;-75